Time;durP1;ratioP1;P1;durP2;ratioP2;P2;SDS_P1;SDS_P2;PMS_P1;PMS_P2;Temp;Humidity;BMP_temperature;BMP_pressure;BME280_temperature;BME280_humidity;BME280_pressure;Samples;Min_cycle;Max_cycle;Signal;HPM_P1;HPM_P2
2022/09/30 00:01:48;;;;;;;6.05;5.00;;;;;;;8.03;100.00;100094.16;4996652;28;20057;-81
2022/09/30 00:04:22;;;;;;;6.80;4.22;;;;;;;7.97;100.00;100090.75;5011347;28;20037;-81
2022/09/30 00:06:53;;;;;;;4.82;4.45;;;;;;;7.89;100.00;100086.44;5023781;28;20044;-81
2022/09/30 00:09:20;;;;;;;5.05;4.65;;;;;;;7.83;100.00;100085.63;5008384;28;20165;-80
2022/09/30 00:11:48;;;;;;;7.10;4.22;;;;;;;7.77;100.00;100091.75;5009874;28;20065;-80
2022/09/30 00:14:19;;;;;;;5.65;4.38;;;;;;;7.69;100.00;100091.78;5021832;28;20041;-81
2022/09/30 00:16:46;;;;;;;5.57;5.00;;;;;;;7.62;100.00;100092.69;5002828;28;20049;-82
2022/09/30 00:19:13;;;;;;;5.60;4.47;;;;;;;7.56;100.00;100100.53;5022261;28;20042;-80
2022/09/30 00:21:41;;;;;;;6.03;5.43;;;;;;;7.49;100.00;100097.09;5024979;28;20219;-81
2022/09/30 00:24:11;;;;;;;10.02;5.32;;;;;;;7.44;100.00;100097.13;5023210;28;20164;-81
2022/09/30 00:26:37;;;;;;;5.25;4.78;;;;;;;7.41;100.00;100098.88;5023950;28;20053;-80
2022/09/30 00:29:10;;;;;;;14.05;6.00;;;;;;;7.34;100.00;100098.06;5027328;28;20477;-80
2022/09/30 00:31:37;;;;;;;8.43;5.73;;;;;;;7.29;100.00;100102.41;5024932;28;20053;-82
2022/09/30 00:34:08;;;;;;;7.50;5.60;;;;;;;7.21;100.00;100097.25;5023936;28;20089;-80
2022/09/30 00:37:04;;;;;;;6.57;5.97;;;;;;;7.15;100.00;100102.47;5005992;28;20056;-82
2022/09/30 00:39:31;;;;;;;5.85;5.00;;;;;;;7.10;100.00;100099.00;5024833;28;20514;-80
2022/09/30 00:42:05;;;;;;;6.10;5.15;;;;;;;7.05;100.00;100100.75;5004270;28;20546;-79
2022/09/30 00:44:55;;;;;;;;;;;;;;;6.99;100.00;100098.16;5024079;28;20045;-82
2022/09/30 00:47:42;;;;;;;6.88;5.55;;;;;;;6.95;100.00;100113.81;5015649;28;20000;-79
2022/09/30 00:50:41;;;;;;;8.63;6.07;;;;;;;6.90;100.00;100115.56;5022786;28;20738;-80
2022/09/30 00:53:24;;;;;;;6.65;6.05;;;;;;;6.84;100.00;100112.09;5025721;28;20049;-82
2022/09/30 00:56:05;;;;;;;8.65;7.20;;;;;;;6.78;100.00;100120.81;5027059;28;20041;-80
2022/09/30 00:58:43;;;;;;;10.45;8.15;;;;;;;6.75;100.00;100121.66;5024278;28;20045;-80
2022/09/30 01:01:10;;;;;;;8.68;6.97;;;;;;;6.70;100.00;100117.31;5010409;28;20075;-80
2022/09/30 01:04:05;;;;;;;10.98;7.47;;;;;;;6.64;100.00;100114.75;5042641;28;20124;-80
2022/09/30 01:06:32;;;;;;;6.70;6.03;;;;;;;6.58;100.00;100119.09;5023247;28;20041;-80
2022/09/30 01:09:00;;;;;;;6.20;5.57;;;;;;;6.52;100.00;100119.09;5022344;28;20080;-82
2022/09/30 01:11:28;;;;;;;7.03;6.38;;;;;;;6.47;100.00;100123.44;5024351;28;20060;-81
2022/09/30 01:14:01;;;;;;;6.85;6.18;;;;;;;6.44;100.00;100123.41;5032988;28;20048;-79
2022/09/30 01:17:42;;;;;;;7.15;6.55;;;;;;;6.44;100.00;100126.91;5026479;28;20088;-83
2022/09/30 01:20:35;;;;;;;9.60;6.22;;;;;;;6.39;100.00;100120.84;5008863;28;20109;-81
2022/09/30 01:23:25;;;;;;;7.72;6.95;;;;;;;6.37;100.00;100124.31;5016720;28;20057;-80
2022/09/30 01:26:56;;;;;;;7.50;6.32;;;;;;;6.33;100.00;100125.19;5012407;28;20046;-82
2022/09/30 01:29:41;;;;;;;8.35;6.78;;;;;;;6.30;100.00;100120.84;5028409;28;20062;-81
2022/09/30 01:32:50;;;;;;;11.52;7.47;;;;;;;6.27;100.00;100121.72;5028147;28;20037;-80
2022/09/30 01:35:53;;;;;;;7.32;6.50;;;;;;;6.24;100.00;100116.50;5012484;28;21039;-80
2022/09/30 01:38:54;;;;;;;7.75;7.03;;;;;;;6.20;100.00;100116.50;5038887;28;20539;-81
2022/09/30 01:41:54;;;;;;;7.68;6.50;;;;;;;6.18;100.00;100118.22;5026530;28;20041;-81
2022/09/30 01:44:39;;;;;;;10.45;7.10;;;;;;;6.18;100.00;100115.63;5026571;28;20057;-80
2022/09/30 01:47:26;;;;;;;12.52;9.30;;;;;;;6.12;100.00;100109.56;5027091;28;20624;-81
2022/09/30 01:50:04;;;;;;;10.57;7.22;;;;;;;6.10;100.00;100111.31;5024993;28;20551;-81
2022/09/30 01:53:05;;;;;;;8.60;7.80;;;;;;;6.08;100.00;100110.44;4995005;28;20459;-82
2022/09/30 01:55:47;;;;;;;8.95;7.20;;;;;;;6.06;100.00;100113.88;5027194;28;20476;-81
2022/09/30 01:58:40;;;;;;;8.70;7.80;;;;;;;6.05;100.00;100122.53;4996114;28;20496;-80
2022/09/30 02:01:19;;;;;;;8.68;7.75;;;;;;;6.00;100.00;100127.75;5041311;28;20492;-79
2022/09/30 02:03:53;;;;;;;9.23;7.88;;;;;;;5.96;100.00;100126.84;5025985;28;20053;-79
2022/09/30 02:06:26;;;;;;;8.90;7.82;;;;;;;5.97;100.00;100127.69;5028217;28;20049;-79
2022/09/30 02:09:06;;;;;;;8.17;7.43;;;;;;;5.91;100.00;100132.91;5026122;28;20060;-79
2022/09/30 02:11:38;;;;;;;10.30;7.97;;;;;;;5.85;100.00;100132.88;5008001;28;20496;-80
2022/09/30 02:14:21;;;;;;;9.82;7.60;;;;;;;5.81;100.00;100124.22;5031221;28;20589;-80
2022/09/30 02:16:58;;;;;;;11.80;8.88;;;;;;;5.73;100.00;100126.78;5030200;28;20064;-82
2022/09/30 02:19:52;;;;;;;9.48;7.93;;;;;;;5.71;100.00;100128.53;5031723;28;20041;-80
2022/09/30 02:22:43;;;;;;;9.85;8.57;;;;;;;5.68;100.00;100133.69;5039837;28;20132;-80
2022/09/30 02:25:17;;;;;;;11.68;9.65;;;;;;;5.63;100.00;100132.81;5007670;28;20064;-80
2022/09/30 02:27:52;;;;;;;11.13;9.68;;;;;;;5.57;100.00;100132.81;5009111;28;20369;-80
2022/09/30 02:30:20;;;;;;;10.50;8.15;;;;;;;5.54;100.00;100133.69;5026962;28;20041;-79
2022/09/30 02:33:00;;;;;;;10.48;9.48;;;;;;;5.52;100.00;100139.72;5008559;28;20806;-81
2022/09/30 02:35:39;;;;;;;10.48;7.68;;;;;;;5.49;100.00;100134.50;5009952;28;20037;-82
2022/09/30 02:38:18;;;;;;;10.20;8.50;;;;;;;5.43;100.00;100145.75;5025333;28;20048;-80
2022/09/30 02:41:05;;;;;;;10.93;9.02;;;;;;;5.39;100.00;100144.00;5007343;28;20564;-80
2022/09/30 02:43:32;;;;;;;10.80;9.25;;;;;;;5.35;100.00;100150.06;5040900;28;20041;-80
2022/09/30 02:46:20;;;;;;;10.70;9.60;;;;;;;5.34;100.00;100149.16;5026916;28;20296;-81
2022/09/30 02:49:04;;;;;;;9.05;8.13;;;;;;;5.32;100.00;100150.91;5026152;28;20684;-79
2022/09/30 02:51:49;;;;;;;12.48;10.32;;;;;;;5.29;100.00;100154.34;5025309;28;21134;-81
2022/09/30 02:54:41;;;;;;;10.52;9.40;;;;;;;5.25;100.00;100160.41;5006922;28;20060;-81
2022/09/30 02:57:57;;;;;;;11.93;10.25;;;;;;;5.23;100.00;100151.72;5022540;28;21075;-81
2022/09/30 03:00:24;;;;;;;14.80;9.65;;;;;;;5.20;100.00;100159.50;4961923;28;20142;-79
2022/09/30 03:02:57;;;;;;;13.27;9.35;;;;;;;5.18;100.00;100156.00;4912545;28;20050;-79
2022/09/30 03:05:25;;;;;;;12.50;10.52;;;;;;;5.18;100.00;100161.22;4958755;28;20373;-81
2022/09/30 03:07:52;;;;;;;13.27;10.40;;;;;;;5.15;100.00;100161.19;4929530;28;20046;-81
2022/09/30 03:10:22;;;;;;;14.88;10.18;;;;;;;5.16;100.00;100169.84;4946557;28;20497;-81
2022/09/30 03:13:16;;;;;;;14.63;9.98;;;;;;;5.19;100.00;100172.44;5022713;28;20825;-81
2022/09/30 03:16:31;;;;;;;11.65;9.63;;;;;;;5.16;100.00;100168.09;5027884;28;20377;-80
2022/09/30 03:19:41;;;;;;;10.77;9.63;;;;;;;5.10;100.00;100181.91;5025753;28;20076;-81
2022/09/30 03:22:46;;;;;;;16.40;11.38;;;;;;;5.08;100.00;100182.78;5023750;28;20081;-80
2022/09/30 03:25:36;;;;;;;14.52;11.18;;;;;;;5.06;100.00;100184.47;5005083;28;20084;-80
2022/09/30 03:28:23;;;;;;;12.85;11.60;;;;;;;5.03;100.00;100180.16;5023184;28;20041;-79
2022/09/30 03:31:20;;;;;;;16.80;11.27;;;;;;;5.03;100.00;100168.91;5031224;28;20045;-81
2022/09/30 03:34:17;;;;;;;13.45;10.48;;;;;;;5.04;100.00;100170.66;5033643;28;20041;-81
2022/09/30 03:37:03;;;;;;;13.18;10.50;;;;;;;4.99;100.00;100174.94;5028593;28;20243;-79
2022/09/30 03:39:40;;;;;;;12.23;9.73;;;;;;;4.98;100.00;100179.28;5018758;28;20119;-80
2022/09/30 03:42:25;;;;;;;12.68;8.75;;;;;;;4.97;100.00;100177.53;5009735;28;20132;-81
2022/09/30 03:45:19;;;;;;;12.80;8.98;;;;;;;4.95;100.00;100187.91;5026847;28;20090;-79
2022/09/30 03:47:51;;;;;;;11.77;9.00;;;;;;;4.93;100.00;100189.59;5007755;28;20054;-81
2022/09/30 03:50:24;;;;;;;12.82;9.88;;;;;;;4.92;100.00;100187.84;5008687;28;20112;-79
2022/09/30 03:52:52;;;;;;;12.57;9.90;;;;;;;4.90;100.00;100192.19;5015274;28;20489;-79
2022/09/30 03:55:21;;;;;;;16.65;10.00;;;;;;;4.91;100.00;100193.91;5026128;28;20753;-81
2022/09/30 03:57:48;;;;;;;12.60;9.90;;;;;;;4.90;100.00;100197.38;5010412;28;21276;-80
2022/09/30 04:00:17;;;;;;;13.13;10.00;;;;;;;4.89;100.00;100193.03;5027986;28;20045;-80
2022/09/30 04:02:44;;;;;;;12.48;9.38;;;;;;;4.89;100.00;100198.22;5028615;28;20065;-81
2022/09/30 04:05:12;;;;;;;11.65;9.00;;;;;;;4.89;100.00;100198.22;5029990;28;20066;-81
2022/09/30 04:07:38;;;;;;;13.32;9.80;;;;;;;4.88;100.00;100201.66;5026282;28;20108;-81
2022/09/30 04:10:07;;;;;;;14.70;10.40;;;;;;;4.89;100.00;100206.00;5035318;28;20045;-80
2022/09/30 04:12:37;;;;;;;11.77;9.77;;;;;;;4.87;100.00;100206.84;5011862;28;20137;-81
2022/09/30 04:15:05;;;;;;;13.07;10.77;;;;;;;4.88;100.00;100199.06;5012973;28;20128;-81
2022/09/30 04:17:32;;;;;;;15.38;9.65;;;;;;;4.86;100.00;100208.56;5010557;28;20538;-81
2022/09/30 04:19:59;;;;;;;13.75;10.05;;;;;;;4.85;100.00;100208.56;5026939;28;20033;-82
2022/09/30 04:22:28;;;;;;;12.95;9.93;;;;;;;4.84;100.00;100212.88;5024932;28;20050;-81
2022/09/30 04:24:57;;;;;;;12.55;10.50;;;;;;;4.86;100.00;100205.09;5023595;28;20088;-83
2022/09/30 04:27:29;;;;;;;10.57;9.23;;;;;;;4.84;100.00;100215.47;5031915;28;20096;-81
2022/09/30 04:29:56;;;;;;;13.95;10.02;;;;;;;4.83;100.00;100220.66;5015009;28;20056;-82
2022/09/30 04:32:31;;;;;;;11.93;9.93;;;;;;;4.80;100.00;100216.31;5008256;28;20147;-82
2022/09/30 04:35:02;;;;;;;10.90;8.75;;;;;;;4.79;100.00;100225.78;5029834;28;20041;-81
2022/09/30 04:37:29;;;;;;;15.18;9.70;;;;;;;4.77;100.00;100229.25;5027678;28;20037;-81
2022/09/30 04:39:56;;;;;;;12.52;9.20;;;;;;;4.73;100.00;100227.47;5014149;28;20288;-82
2022/09/30 04:42:24;;;;;;;12.38;10.85;;;;;;;4.70;100.00;100225.72;5028685;28;20049;-81
2022/09/30 04:44:56;;;;;;;10.40;9.13;;;;;;;4.68;100.00;100235.25;5029158;28;20072;-81
2022/09/30 04:47:24;;;;;;;15.25;10.20;;;;;;;4.69;100.00;100241.28;5041622;28;20072;-82
2022/09/30 04:49:50;;;;;;;13.63;10.35;;;;;;;4.66;100.00;100234.34;5026210;28;20383;-80
2022/09/30 04:52:28;;;;;;;12.88;11.25;;;;;;;4.64;100.00;100241.22;5011842;28;20072;-79
2022/09/30 04:54:55;;;;;;;14.27;9.95;;;;;;;4.63;100.00;100236.91;5008223;28;20046;-81
2022/09/30 04:57:21;;;;;;;12.55;10.02;;;;;;;4.61;100.00;100243.81;5025184;28;20046;-81
2022/09/30 04:59:50;;;;;;;13.48;10.43;;;;;;;4.63;100.00;100237.78;5028192;28;20120;-81
2022/09/30 05:02:17;;;;;;;10.93;9.63;;;;;;;4.64;100.00;100244.72;5027795;28;20366;-82
2022/09/30 05:04:44;;;;;;;14.25;10.55;;;;;;;4.66;100.00;100251.63;5025823;28;20049;-81
2022/09/30 05:07:11;;;;;;;13.85;9.85;;;;;;;4.63;100.00;100255.94;5008771;28;20038;-80
2022/09/30 05:09:38;;;;;;;11.38;9.35;;;;;;;4.63;100.00;100260.25;5025019;28;20050;-79
2022/09/30 05:12:05;;;;;;;13.65;10.25;;;;;;;4.62;100.00;100258.50;5009059;28;20056;-81
2022/09/30 05:14:40;;;;;;;15.20;10.95;;;;;;;4.63;100.00;100258.53;5026663;28;20045;-80
2022/09/30 05:17:07;;;;;;;13.68;9.93;;;;;;;4.62;100.00;100255.91;5026653;28;20099;-81
2022/09/30 05:19:34;;;;;;;13.60;11.05;;;;;;;4.63;100.00;100260.25;5026677;28;20061;-79
2022/09/30 05:22:02;;;;;;;13.40;10.40;;;;;;;4.59;100.00;100261.94;5025459;28;20941;-80
2022/09/30 05:24:30;;;;;;;14.35;11.23;;;;;;;4.59;100.00;100269.72;4999224;28;20041;-82
2022/09/30 05:26:59;;;;;;;15.13;11.10;;;;;;;4.61;100.00;100269.72;5012716;28;20045;-80
2022/09/30 05:29:27;;;;;;;13.65;9.85;;;;;;;4.63;100.00;100275.81;5030035;28;20056;-80
2022/09/30 05:31:54;;;;;;;13.15;9.88;;;;;;;4.62;100.00;100276.66;5013866;28;20049;-80
2022/09/30 05:34:21;;;;;;;15.43;10.32;;;;;;;4.61;100.00;100286.16;5016937;28;20060;-83
2022/09/30 05:36:49;;;;;;;15.25;10.73;;;;;;;4.61;100.00;100288.72;5018170;28;20053;-80
2022/09/30 05:39:21;;;;;;;12.27;9.80;;;;;;;4.61;100.00;100287.88;5033971;28;20078;-80
2022/09/30 05:41:48;;;;;;;13.93;11.90;;;;;;;4.61;100.00;100287.88;5038850;28;20075;-80
2022/09/30 05:44:14;;;;;;;12.13;10.70;;;;;;;4.64;100.00;100285.31;5014598;28;20045;-79
2022/09/30 05:46:43;;;;;;;16.30;11.63;;;;;;;4.67;100.00;100290.53;5016434;28;20045;-81
2022/09/30 05:49:10;;;;;;;14.23;10.90;;;;;;;4.71;100.00;100297.47;5028850;28;20053;-80
2022/09/30 05:51:37;;;;;;;14.13;10.55;;;;;;;4.74;100.00;100301.81;5027401;28;20049;-81
2022/09/30 05:54:05;;;;;;;13.48;11.10;;;;;;;4.77;100.00;100294.97;5030865;28;20041;-82
2022/09/30 05:56:34;;;;;;;12.23;10.50;;;;;;;4.79;100.00;100298.41;5018791;28;20101;-81
2022/09/30 05:59:04;;;;;;;13.48;11.32;;;;;;;4.83;100.00;100304.50;5000263;28;20041;-80
2022/09/30 06:01:32;;;;;;;12.57;10.70;;;;;;;4.83;100.00;100306.25;5032906;28;20050;-81
2022/09/30 06:04:00;;;;;;;14.15;10.75;;;;;;;4.85;100.00;100308.00;5017543;28;20050;-80
2022/09/30 06:06:26;;;;;;;12.02;9.55;;;;;;;4.88;100.00;100317.53;5028660;28;20527;-82
2022/09/30 06:08:54;;;;;;;13.40;11.20;;;;;;;4.92;100.00;100325.31;5015359;28;20443;-81
2022/09/30 06:11:23;;;;;;;13.95;11.43;;;;;;;4.98;100.00;100329.72;5016166;28;20064;-79
2022/09/30 06:13:59;;;;;;;14.35;10.25;;;;;;;5.01;100.00;100327.16;5027817;28;20046;-80
2022/09/30 06:16:28;;;;;;;16.98;12.52;;;;;;;5.09;100.00;100335.00;5013883;28;20059;-84
2022/09/30 06:18:55;;;;;;;13.57;11.02;;;;;;;5.16;100.00;100336.75;5009745;28;20045;-80
2022/09/30 06:21:23;;;;;;;15.50;11.68;;;;;;;5.22;100.00;100344.59;5027136;28;20081;-80
2022/09/30 06:23:50;;;;;;;12.13;10.55;;;;;;;5.29;100.00;100343.81;5011329;28;20160;-79
2022/09/30 06:26:24;;;;;;;15.23;11.52;;;;;;;5.36;100.00;100341.25;5023667;28;20151;-80
2022/09/30 06:28:50;;;;;;;15.35;10.93;;;;;;;5.46;100.00;100337.84;5030730;28;20041;-81
2022/09/30 06:31:17;;;;;;;14.75;11.07;;;;;;;5.54;100.00;100340.50;5026296;28;20492;-81
2022/09/30 06:33:46;;;;;;;13.60;10.50;;;;;;;5.69;100.00;100343.19;5026800;28;20037;-83
2022/09/30 06:36:13;;;;;;;15.70;11.85;;;;;;;6.28;100.00;100340.91;5029361;28;20136;-80
2022/09/30 06:38:40;;;;;;;15.23;10.38;;;;;;;7.01;100.00;100344.53;5023593;28;20399;-80
2022/09/30 06:41:08;;;;;;;15.45;10.75;;;;;;;7.68;100.00;100342.75;5031362;28;20046;-80
2022/09/30 06:43:37;;;;;;;13.60;11.02;;;;;;;8.20;100.00;100343.47;5025998;28;20104;-81
2022/09/30 06:46:11;;;;;;;13.85;9.63;;;;;;;8.65;100.00;100344.13;5010931;28;20046;-80
2022/09/30 06:48:37;;;;;;;;;;;;;;;8.98;98.84;100350.00;5028061;28;20082;-81
2022/09/30 06:51:08;;;;;;;11.30;8.35;;;;;;;9.35;99.81;100347.09;5024507;28;19932;-82
2022/09/30 06:53:49;;;;;;;;;;;;;;;;;;;;;
2022/09/30 06:56:42;;;;;;;12.10;8.77;;;;;;;10.02;92.99;100351.66;5030361;28;20574;-83
2022/09/30 06:59:13;;;;;;;9.30;8.32;;;;;;;10.25;90.34;100354.84;5037328;28;20038;-82
2022/09/30 07:01:41;;;;;;;11.18;8.35;;;;;;;10.57;88.51;100348.38;5031449;28;20563;-80
2022/09/30 07:04:13;;;;;;;16.00;8.95;;;;;;;10.84;85.57;100356.72;5013476;28;20476;-82
2022/09/30 07:06:46;;;;;;;21.03;9.33;;;;;;;11.04;83.60;100351.19;5011266;28;20045;-82
2022/09/30 07:09:16;;;;;;;9.02;7.82;;;;;;;11.35;81.97;100355.06;4997646;28;20298;-84
2022/09/30 07:11:43;;;;;;;8.65;7.75;;;;;;;11.67;81.29;100351.00;5033600;28;21030;-82
2022/09/30 07:14:14;;;;;;;8.35;6.65;;;;;;;11.90;78.86;100348.81;5034786;28;21454;-81
2022/09/30 07:16:44;;;;;;;9.65;6.63;;;;;;;12.15;76.51;100355.34;5027299;28;20891;-81
2022/09/30 07:19:11;;;;;;;9.75;7.30;;;;;;;12.29;76.15;100349.81;5025208;28;20124;-81
2022/09/30 07:21:39;;;;;;;9.15;7.32;;;;;;;12.64;73.04;100361.34;5024785;28;20048;-81
2022/09/30 07:24:09;;;;;;;6.15;5.65;;;;;;;12.88;73.33;100362.53;5021773;28;20157;-81
2022/09/30 07:26:39;;;;;;;8.07;6.75;;;;;;;13.24;71.28;100359.94;5024467;28;20053;-81
2022/09/30 07:29:07;;;;;;;8.35;7.07;;;;;;;13.52;71.06;100359.28;5023618;28;20061;-83
2022/09/30 07:31:35;;;;;;;8.15;6.72;;;;;;;13.73;69.23;100356.06;5025856;28;20124;-82
2022/09/30 07:34:07;;;;;;;7.75;6.55;;;;;;;14.00;68.00;100352.72;5025717;28;20192;-85
2022/09/30 07:36:40;;;;;;;7.38;6.55;;;;;;;14.36;66.99;100355.19;5022711;28;20045;-83
2022/09/30 07:39:10;;;;;;;8.30;6.95;;;;;;;14.71;65.60;100363.84;5024333;28;20076;-83
2022/09/30 07:41:45;;;;;;;8.00;6.53;;;;;;;14.88;64.24;100355.41;5007401;28;20476;-83
2022/09/30 07:44:14;;;;;;;7.75;6.30;;;;;;;15.15;64.00;100350.19;5009807;28;20054;-82
2022/09/30 07:46:54;;;;;;;7.50;6.43;;;;;;;14.45;64.10;100351.44;5027873;28;20049;-80
2022/09/30 07:49:25;;;;;;;7.00;6.30;;;;;;;13.44;67.38;100359.47;5014537;28;20063;-82
2022/09/30 07:51:58;;;;;;;9.55;6.70;;;;;;;12.61;69.89;100361.41;5009123;28;20846;-81
2022/09/30 07:54:40;;;;;;;6.72;6.15;;;;;;;11.92;73.55;100360.13;5007326;28;20077;-80
2022/09/30 07:57:09;;;;;;;9.43;6.97;;;;;;;11.56;76.40;100367.81;5006958;28;20053;-81
2022/09/30 07:59:40;;;;;;;7.65;6.43;;;;;;;11.35;77.58;100371.63;5004793;28;20052;-80
2022/09/30 08:02:16;;;;;;;7.68;6.88;;;;;;;11.12;78.96;100371.16;5023677;28;20459;-82
2022/09/30 08:04:46;;;;;;;9.32;6.95;;;;;;;11.01;79.33;100381.78;5038838;28;20049;-80
2022/09/30 08:07:17;;;;;;;9.23;7.55;;;;;;;10.95;80.52;100371.41;5008036;28;20616;-80
2022/09/30 08:09:49;;;;;;;8.00;7.30;;;;;;;11.00;80.12;100378.31;5026413;28;20045;-80
2022/09/30 08:12:30;;;;;;;;;;;;;;;;;;;;;
2022/09/30 08:14:57;;;;;;;8.27;7.35;;;;;;;12.93;73.57;100381.66;5028044;28;20057;-83
2022/09/30 08:17:24;;;;;;;9.07;7.28;;;;;;;14.46;67.67;100377.72;5023741;28;20050;-80
2022/09/30 08:19:51;;;;;;;7.07;6.25;;;;;;;15.66;61.73;100377.50;5009750;28;21051;-83
2022/09/30 08:22:22;;;;;;;9.32;6.80;;;;;;;16.69;58.82;100370.25;5023740;28;20045;-82
2022/09/30 08:24:52;;;;;;;7.75;6.95;;;;;;;17.60;56.21;100365.69;5009897;28;20056;-81
2022/09/30 08:27:19;;;;;;;6.22;5.43;;;;;;;18.38;53.19;100368.47;5009999;28;20057;-83
2022/09/30 08:29:48;;;;;;;6.57;5.93;;;;;;;18.88;52.91;100370.53;5043619;28;20105;-82
2022/09/30 08:32:17;;;;;;;10.15;5.88;;;;;;;19.14;50.44;100371.09;5015358;28;20160;-81
2022/09/30 08:34:44;;;;;;;6.28;5.45;;;;;;;19.22;50.61;100371.56;5032695;28;20048;-82
2022/09/30 08:37:12;;;;;;;6.93;5.68;;;;;;;19.71;49.92;100378.88;5025313;28;20176;-83
2022/09/30 08:39:39;;;;;;;4.28;3.88;;;;;;;20.13;49.33;100382.88;4997193;28;20045;-83
2022/09/30 08:42:29;;;;;;;7.53;5.63;;;;;;;20.59;46.30;100381.34;5016743;28;20484;-82
2022/09/30 08:45:22;;;;;;;5.47;4.97;;;;;;;20.84;45.29;100380.00;5022483;28;20068;-84
2022/09/30 08:48:29;;;;;;;5.53;5.00;;;;;;;19.75;46.46;100383.06;5026769;28;20050;-83
2022/09/30 08:51:39;;;;;;;4.95;4.60;;;;;;;18.53;50.34;100388.97;5028518;28;20595;-83
2022/09/30 08:54:17;;;;;;;6.25;4.45;;;;;;;17.61;52.99;100393.88;4997350;28;20045;-83
2022/09/30 08:56:46;;;;;;;4.90;4.60;;;;;;;16.62;57.34;100396.06;5029047;28;20117;-82
2022/09/30 08:59:39;;;;;;;5.75;5.25;;;;;;;15.86;57.02;100393.50;5027148;28;20556;-83
2022/09/30 09:02:33;;;;;;;5.28;4.40;;;;;;;15.01;61.17;100388.38;5043492;28;20057;-84
2022/09/30 09:05:11;;;;;;;5.25;4.35;;;;;;;14.58;62.83;100399.34;5008433;28;20056;-82
2022/09/30 09:08:19;;;;;;;5.75;5.25;;;;;;;14.29;63.49;100396.66;5020695;28;20056;-81
2022/09/30 09:11:02;;;;;;;6.40;5.80;;;;;;;14.06;64.36;100403.41;4986967;28;20040;-83
2022/09/30 09:14:04;;;;;;;6.80;6.10;;;;;;;13.78;66.23;100405.06;5010597;28;20096;-82
2022/09/30 09:16:52;;;;;;;7.13;6.43;;;;;;;13.64;66.67;100408.91;5021806;28;20676;-83
2022/09/30 09:19:37;;;;;;;6.63;5.97;;;;;;;13.56;66.42;100408.25;5005817;28;20166;-82
2022/09/30 09:22:11;;;;;;;5.95;5.35;;;;;;;13.53;66.77;100406.56;5010942;28;20052;-85
2022/09/30 09:24:47;;;;;;;7.30;5.50;;;;;;;13.55;66.97;100403.91;5024626;28;20113;-83
2022/09/30 09:27:41;;;;;;;7.25;6.55;;;;;;;13.58;65.96;100403.81;5028088;28;20042;-83
2022/09/30 09:30:19;;;;;;;7.65;6.90;;;;;;;13.67;64.94;100410.59;5005046;28;20123;-82
2022/09/30 09:32:56;;;;;;;8.20;6.82;;;;;;;13.70;63.82;100405.25;5029893;28;20049;-82
2022/09/30 09:35:39;;;;;;;7.03;6.43;;;;;;;13.86;63.83;100403.09;5026953;28;20129;-81
2022/09/30 09:38:34;;;;;;;9.93;6.82;;;;;;;15.42;59.14;100401.13;5023186;28;20401;-81
2022/09/30 09:41:26;;;;;;;7.55;6.10;;;;;;;17.79;51.49;100392.25;5014195;28;20132;-81
2022/09/30 09:44:14;;;;;;;9.70;7.20;;;;;;;19.55;46.29;100392.03;5034511;28;20053;-81
2022/09/30 09:47:04;;;;;;;8.57;7.75;;;;;;;20.90;42.74;100398.25;5030304;28;20045;-83
2022/09/30 09:49:34;;;;;;;6.53;6.03;;;;;;;21.65;42.71;100398.41;5027997;28;20048;-83
2022/09/30 09:52:41;;;;;;;8.10;7.35;;;;;;;22.27;38.67;100392.88;5009566;28;20046;-82
2022/09/30 09:55:10;;;;;;;6.43;5.68;;;;;;;22.74;39.08;100398.00;4994125;28;20079;-83
2022/09/30 09:57:39;;;;;;;6.03;5.43;;;;;;;23.41;38.85;100391.88;5021643;28;20128;-83
2022/09/30 10:03:27;;;;;;;6.03;5.53;;;;;;;24.01;34.16;100389.66;5023613;28;20045;-81
2022/09/30 10:06:12;;;;;;;5.72;5.22;;;;;;;23.47;35.82;100388.81;5025879;28;20840;-85
2022/09/30 10:08:56;;;;;;;5.90;5.35;;;;;;;24.11;34.88;100391.56;5009437;28;20049;-83
2022/09/30 10:11:26;;;;;;;6.82;4.97;;;;;;;24.52;34.11;100391.41;5012862;28;20052;-85
2022/09/30 10:13:58;;;;;;;5.50;5.00;;;;;;;24.36;33.82;100394.34;5010485;28;20049;-83
2022/09/30 10:16:35;;;;;;;6.07;4.50;;;;;;;24.51;34.67;100385.22;5026013;28;20049;-82
2022/09/30 10:19:31;;;;;;;8.32;4.05;;;;;;;25.10;32.54;100386.34;5024963;28;20050;-85
2022/09/30 10:22:10;;;;;;;4.63;3.58;;;;;;;25.80;32.07;100389.16;5036524;28;20056;-85
2022/09/30 10:24:39;;;;;;;4.45;4.10;;;;;;;26.17;32.93;100386.31;5040348;28;20085;-82
2022/09/30 10:27:36;;;;;;;5.25;3.88;;;;;;;25.97;31.05;100380.66;5015420;28;20042;-82
2022/09/30 10:30:04;;;;;;;3.90;3.60;;;;;;;25.64;32.67;100389.47;5022423;28;20053;-85
2022/09/30 10:32:32;;;;;;;5.75;4.43;;;;;;;25.44;34.03;100381.13;5046437;28;20053;-84
2022/09/30 10:35:21;;;;;;;4.88;4.47;;;;;;;26.30;31.12;100379.00;5062765;28;20054;-83
2022/09/30 10:37:56;;;;;;;5.40;4.90;;;;;;;26.51;30.45;100378.25;5047060;28;20025;-85
2022/09/30 10:40:30;;;;;;;7.13;5.05;;;;;;;26.76;28.67;100393.25;5032618;28;20057;-84
2022/09/30 10:42:58;;;;;;;5.50;4.78;;;;;;;26.51;30.73;100392.50;5026627;28;20061;-83
2022/09/30 10:45:37;;;;;;;5.75;4.10;;;;;;;27.62;28.11;100387.09;4994082;28;20456;-83
2022/09/30 10:48:08;;;;;;;5.00;4.15;;;;;;;27.71;28.17;100384.44;5026470;28;20044;-83
2022/09/30 10:50:35;;;;;;;5.68;4.80;;;;;;;27.83;27.79;100390.59;5028774;28;20812;-83
2022/09/30 10:53:15;;;;;;;3.72;3.47;;;;;;;26.59;28.01;100391.88;5011871;28;20061;-84
2022/09/30 10:55:45;;;;;;;3.47;3.17;;;;;;;25.69;29.93;100392.66;5034873;28;20155;-84
2022/09/30 10:58:50;;;;;;;4.85;4.45;;;;;;;26.08;29.48;100393.25;5054568;28;20041;-85
2022/09/30 11:01:57;;;;;;;5.65;3.88;;;;;;;26.71;28.78;100387.34;5037205;28;20050;-85
2022/09/30 11:04:35;;;;;;;4.10;3.80;;;;;;;27.04;27.30;100383.78;5028567;28;20057;-85
2022/09/30 11:07:20;;;;;;;3.63;3.33;;;;;;;27.29;27.81;100388.94;5033211;28;20049;-83
2022/09/30 11:10:06;;;;;;;6.38;5.40;;;;;;;27.43;27.60;100391.34;5000276;28;20049;-86
2022/09/30 11:13:08;;;;;;;4.50;4.05;;;;;;;27.51;27.64;100385.31;5037410;28;20522;-83
2022/09/30 11:15:59;;;;;;;4.75;4.10;;;;;;;28.13;26.74;100386.28;5011382;28;20099;-85
2022/09/30 11:18:38;;;;;;;7.15;4.40;;;;;;;28.47;26.91;100391.38;5043106;28;20052;-85
2022/09/30 11:21:17;;;;;;;4.70;4.30;;;;;;;27.84;25.95;100399.56;5033313;28;20044;-85
2022/09/30 11:23:58;;;;;;;3.95;3.60;;;;;;;28.55;26.10;100399.63;5039731;28;20564;-86
2022/09/30 11:26:58;;;;;;;4.22;3.33;;;;;;;29.27;25.27;100388.75;5024010;28;20167;-85
2022/09/30 11:29:51;;;;;;;4.35;4.00;;;;;;;29.90;25.04;100395.50;5031587;28;20049;-87
2022/09/30 11:32:54;;;;;;;5.38;4.88;;;;;;;29.98;24.46;100390.22;5008355;28;20046;-85
2022/09/30 11:35:46;;;;;;;7.50;4.40;;;;;;;30.57;25.04;100389.16;5025381;28;20041;-85
2022/09/30 11:38:29;;;;;;;4.60;4.20;;;;;;;30.72;23.73;100384.94;5024381;28;20578;-86
2022/09/30 11:41:44;;;;;;;4.82;4.53;;;;;;;30.98;23.60;100385.03;5026231;28;20052;-82
2022/09/30 11:44:56;;;;;;;4.78;4.38;;;;;;;30.87;23.08;100376.31;5000288;28;20559;-85
2022/09/30 11:48:10;;;;;;;4.63;3.92;;;;;;;29.15;24.52;100379.91;4987004;28;20691;-85
2022/09/30 11:50:57;;;;;;;4.00;3.70;;;;;;;28.78;24.36;100375.19;5025201;28;20128;-83
2022/09/30 11:54:07;;;;;;;;;;;;;;;;;;;;;
2022/09/30 11:56:59;;;;;;;5.15;4.18;;;;;;;28.84;24.59;100371.94;5020332;28;20124;-85
2022/09/30 11:59:49;;;;;;;6.25;3.35;;;;;;;28.65;24.58;100367.34;5023594;28;20419;-84
2022/09/30 12:02:48;;;;;;;5.15;3.42;;;;;;;28.62;24.93;100369.47;4994263;28;20044;-83
2022/09/30 12:05:53;;;;;;;3.35;3.10;;;;;;;29.02;25.28;100363.16;5005754;28;20124;-84
2022/09/30 12:08:25;;;;;;;3.15;2.85;;;;;;;28.70;24.15;100369.66;4977470;28;20313;-85
2022/09/30 12:11:04;;;;;;;3.13;2.80;;;;;;;28.57;24.19;100360.94;5016766;28;20045;-85
2022/09/30 12:13:48;;;;;;;3.25;2.67;;;;;;;28.40;24.47;100376.75;5007576;28;20443;-86
2022/09/30 12:16:26;;;;;;;4.30;2.95;;;;;;;27.51;25.30;100370.03;5018455;28;20465;-87
2022/09/30 12:19:14;;;;;;;4.20;3.80;;;;;;;27.70;25.28;100372.00;5032335;28;20053;-85